createdAt,value
2023-02-23T00:01:54.416Z,100565.72
2023-02-23T00:04:23.536Z,100562.38
2023-02-23T00:06:52.178Z,100565.84
2023-02-23T00:09:24.271Z,100568.53
2023-02-23T00:11:55.406Z,100564.09
2023-02-23T00:14:27.258Z,100557.94
2023-02-23T00:16:55.161Z,100561.38
2023-02-23T00:19:24.751Z,100557.22
2023-02-23T00:21:53.257Z,100558.91
2023-02-23T00:24:22.029Z,100558.09
2023-02-23T00:26:51.497Z,100555.50
2023-02-23T00:29:22.670Z,100548.59
2023-02-23T00:31:52.207Z,100552.94
2023-02-23T00:34:21.944Z,100553.81
2023-02-23T00:36:51.562Z,100556.41
2023-02-23T00:39:21.789Z,100553.84
2023-02-23T00:41:50.450Z,100549.59
2023-02-23T00:44:18.724Z,100540.91
2023-02-23T00:46:51.048Z,100543.41
2023-02-23T00:49:20.073Z,100541.75
2023-02-23T00:51:48.116Z,100540.75
2023-02-23T00:54:17.143Z,100541.66
2023-02-23T00:56:46.315Z,100539.97
2023-02-23T00:59:15.251Z,100546.06
2023-02-23T01:01:43.744Z,100539.88
2023-02-23T01:04:14.249Z,100543.34
2023-02-23T01:06:43.121Z,100539.06
2023-02-23T01:09:13.793Z,100543.34
2023-02-23T01:11:42.402Z,100539.84
2023-02-23T01:14:12.121Z,100547.69
2023-02-23T01:16:42.172Z,100542.44
2023-02-23T01:19:13.345Z,100537.22
2023-02-23T01:21:44.077Z,100540.63
2023-02-23T01:24:14.212Z,100540.66
2023-02-23T01:26:45.019Z,100542.38
2023-02-23T01:29:15.110Z,100536.34
2023-02-23T01:31:45.394Z,100536.34
2023-02-23T01:34:18.259Z,100539.88
2023-02-23T01:36:46.529Z,100540.69
2023-02-23T01:39:17.116Z,100530.31
2023-02-23T01:41:45.505Z,100538.19
2023-02-23T01:44:50.738Z,100537.28
2023-02-23T01:47:20.423Z,100536.50
2023-02-23T01:49:50.904Z,100529.47
2023-02-23T01:52:20.775Z,100527.69
2023-02-23T01:54:52.969Z,100535.53
2023-02-23T01:57:25.274Z,100532.16
2023-02-23T01:59:54.578Z,100528.88
2023-02-23T02:02:33.530Z,100521.03
2023-02-23T02:05:08.322Z,100522.72
2023-02-23T02:07:37.096Z,100522.69
2023-02-23T02:10:23.286Z,100526.97
2023-02-23T02:12:55.800Z,100527.91
2023-02-23T02:15:29.505Z,100518.34
2023-02-23T02:18:09.465Z,100518.34
2023-02-23T02:21:06.073Z,100521.00
2023-02-23T02:24:21.981Z,100508.00
2023-02-23T02:27:02.534Z,100519.34
2023-02-23T02:30:17.541Z,100513.38
2023-02-23T02:33:15.090Z,100514.44
2023-02-23T02:36:24.324Z,100512.66
2023-02-23T02:39:07.859Z,100514.34
2023-02-23T02:41:45.331Z,100514.38
2023-02-23T02:44:19.318Z,100509.22
2023-02-23T02:46:49.952Z,100504.72
2023-02-23T02:49:27.910Z,100507.38
2023-02-23T02:52:02.086Z,100502.31
2023-02-23T02:54:37.068Z,100496.16
2023-02-23T02:57:07.266Z,100501.38
2023-02-23T03:00:02.088Z,100511.78
2023-02-23T03:02:50.516Z,100502.41
2023-02-23T03:05:39.642Z,100499.03
2023-02-23T03:08:35.089Z,100497.31
2023-02-23T03:11:25.223Z,100500.84
2023-02-23T03:14:29.811Z,100501.66
2023-02-23T03:17:22.185Z,100502.44
2023-02-23T03:20:15.916Z,100495.44
2023-02-23T03:23:08.783Z,100505.78
2023-02-23T03:26:06.166Z,100504.91
2023-02-23T03:28:59.528Z,100503.22
2023-02-23T03:31:57.075Z,100504.88
2023-02-23T03:34:48.990Z,100504.03
2023-02-23T03:37:40.127Z,100506.66
2023-02-23T03:40:35.238Z,100500.56
2023-02-23T03:43:25.210Z,100507.63
2023-02-23T03:46:15.033Z,100504.97
2023-02-23T03:49:03.821Z,100505.00
2023-02-23T03:51:52.795Z,100512.84
2023-02-23T03:54:46.652Z,100506.75
2023-02-23T03:57:37.636Z,100508.53
2023-02-23T04:00:27.820Z,100513.75
2023-02-23T04:03:16.924Z,100514.56
2023-02-23T04:06:03.656Z,100510.22
2023-02-23T04:08:53.908Z,100519.78
2023-02-23T04:11:46.154Z,100515.34
2023-02-23T04:14:18.407Z,100519.69
2023-02-23T04:16:45.613Z,100518.16
2023-02-23T04:19:15.256Z,100520.94
2023-02-23T04:21:43.115Z,100522.69
2023-02-23T04:24:11.826Z,100521.03
2023-02-23T04:26:39.910Z,100523.59
2023-02-23T04:29:07.966Z,100530.53
2023-02-23T04:31:35.845Z,100536.75
2023-02-23T04:34:04.755Z,100538.50
2023-02-23T04:36:34.430Z,100538.50
2023-02-23T04:39:02.507Z,100548.13
2023-02-23T04:41:30.393Z,100539.44
2023-02-23T04:43:58.638Z,100542.06
2023-02-23T04:46:27.141Z,100544.66
2023-02-23T04:48:55.579Z,100545.50
2023-02-23T04:51:23.538Z,100543.72
2023-02-23T04:53:52.770Z,100547.19
2023-02-23T04:56:20.664Z,100542.88
2023-02-23T04:58:49.194Z,100543.75
2023-02-23T05:01:17.729Z,100546.31
2023-02-23T05:03:45.903Z,100555.88
2023-02-23T05:06:14.206Z,100547.22
2023-02-23T05:08:42.086Z,100548.09
2023-02-23T05:11:11.374Z,100545.44
2023-02-23T05:13:39.620Z,100547.25
2023-02-23T05:16:09.256Z,100550.78
2023-02-23T05:18:37.289Z,100558.53
2023-02-23T05:21:09.122Z,100555.00
2023-02-23T05:23:37.760Z,100563.66
2023-02-23T05:26:08.162Z,100552.44
2023-02-23T05:28:39.234Z,100559.44
2023-02-23T05:31:07.356Z,100560.34
2023-02-23T05:33:42.291Z,100565.56
2023-02-23T05:36:11.704Z,100562.16
2023-02-23T05:38:40.676Z,100561.34
2023-02-23T05:41:09.606Z,100563.06
2023-02-23T05:43:39.535Z,100561.28
2023-02-23T05:46:08.806Z,100568.25
2023-02-23T05:48:38.204Z,100569.16
2023-02-23T05:51:07.588Z,100570.94
2023-02-23T05:53:35.440Z,100563.06
2023-02-23T05:56:04.561Z,100576.06
2023-02-23T05:58:32.620Z,100573.44
2023-02-23T06:01:01.949Z,100562.97
2023-02-23T06:03:29.873Z,100575.19
2023-02-23T06:05:59.623Z,100576.94
2023-02-23T06:08:27.725Z,100570.84
2023-02-23T06:10:55.579Z,100578.72
2023-02-23T06:13:23.474Z,100583.94
2023-02-23T06:15:51.360Z,100582.25
2023-02-23T06:18:22.152Z,100593.56
2023-02-23T06:20:50.136Z,100595.25
2023-02-23T06:23:18.206Z,100592.75
2023-02-23T06:25:47.914Z,100594.44
2023-02-23T06:28:16.264Z,100599.69
2023-02-23T06:30:44.875Z,100598.81
2023-02-23T06:33:12.736Z,100605.72
2023-02-23T06:35:42.042Z,100599.69
2023-02-23T06:38:10.013Z,100606.63
2023-02-23T06:40:39.266Z,100612.66
2023-02-23T06:43:07.206Z,100606.59
2023-02-23T06:45:35.005Z,100603.16
2023-02-23T06:48:02.893Z,100609.19
2023-02-23T06:50:30.835Z,100612.66
2023-02-23T06:53:00.388Z,100621.31
2023-02-23T06:55:28.530Z,100623.94
2023-02-23T06:57:56.380Z,100626.56
2023-02-23T07:00:24.725Z,100626.56
2023-02-23T07:02:52.615Z,100631.84
2023-02-23T07:05:21.041Z,100628.34
2023-02-23T07:07:48.886Z,100635.25
2023-02-23T07:10:19.164Z,100633.50
2023-02-23T07:12:47.118Z,100643.03
2023-02-23T07:15:18.446Z,100648.25
2023-02-23T07:17:48.768Z,100651.69
2023-02-23T07:20:17.037Z,100649.09
2023-02-23T07:22:45.183Z,100654.31
2023-02-23T07:25:13.718Z,100656.03
2023-02-23T07:27:44.524Z,100670.81
2023-02-23T07:30:13.701Z,100669.91
2023-02-23T07:32:41.674Z,100672.47
2023-02-23T07:35:10.367Z,100675.13
2023-02-23T07:37:38.250Z,100670.84
2023-02-23T07:40:06.957Z,100674.31
2023-02-23T07:42:34.828Z,100670.81
2023-02-23T07:45:04.307Z,100664.69
2023-02-23T07:47:32.169Z,100670.72
2023-02-23T07:50:02.399Z,100674.19
2023-02-23T07:52:30.722Z,100674.22
2023-02-23T07:54:58.832Z,100677.63
2023-02-23T07:57:26.861Z,100672.41
2023-02-23T07:59:55.141Z,100672.34
2023-02-23T08:02:24.322Z,100678.41
2023-02-23T08:04:54.075Z,100676.63
2023-02-23T08:07:22.080Z,100681.84
2023-02-23T08:09:49.994Z,100687.94
2023-02-23T08:12:17.855Z,100683.53
2023-02-23T08:14:46.320Z,100692.25
2023-02-23T08:17:14.213Z,100693.94
2023-02-23T08:19:43.433Z,100699.16
2023-02-23T08:22:11.658Z,100703.50
2023-02-23T08:24:39.558Z,100704.34
2023-02-23T08:27:07.626Z,100697.41
2023-02-23T08:29:35.868Z,100699.13
2023-02-23T08:32:04.973Z,100708.63
2023-02-23T08:34:33.392Z,100705.09
2023-02-23T08:37:02.660Z,100706.84
2023-02-23T08:39:30.591Z,100701.59
2023-02-23T08:41:58.534Z,100706.91
2023-02-23T08:44:26.617Z,100710.31
2023-02-23T08:46:55.632Z,100706.06
2023-02-23T08:49:23.995Z,100709.53
2023-02-23T08:51:51.867Z,100713.00
2023-02-23T08:54:21.129Z,100715.63
2023-02-23T08:56:49.310Z,100709.47
2023-02-23T08:59:17.644Z,100716.53
2023-02-23T09:01:45.984Z,100715.59
2023-02-23T09:04:14.694Z,100717.34
2023-02-23T09:06:42.657Z,100719.03
2023-02-23T09:09:10.570Z,100720.75
2023-02-23T09:11:39.883Z,100720.81
2023-02-23T09:14:08.606Z,100724.28
2023-02-23T09:16:37.261Z,100724.25
2023-02-23T09:19:05.309Z,100732.94
2023-02-23T09:21:34.431Z,100733.78
2023-02-23T09:24:02.537Z,100735.53
2023-02-23T09:26:32.196Z,100730.31
2023-02-23T09:29:03.517Z,100731.25
2023-02-23T09:31:31.879Z,100733.91
2023-02-23T09:34:00.361Z,100746.13
2023-02-23T09:36:28.994Z,100740.00
2023-02-23T09:38:57.757Z,100741.69
2023-02-23T09:41:57.165Z,100746.03
2023-02-23T09:44:43.167Z,100744.16
2023-02-23T09:47:27.554Z,100752.78
2023-02-23T09:49:58.778Z,100754.47
2023-02-23T09:52:29.294Z,100758.78
2023-02-23T09:54:59.282Z,100758.81
2023-02-23T09:57:39.686Z,100757.97
2023-02-23T10:00:19.466Z,100761.44
2023-02-23T10:03:07.846Z,100756.94
2023-02-23T10:05:43.900Z,100765.59
2023-02-23T10:08:23.934Z,100761.25
2023-02-23T10:11:00.328Z,100765.69
2023-02-23T10:13:40.067Z,100764.84
2023-02-23T10:16:20.050Z,100770.03
2023-02-23T10:18:56.412Z,100775.19
2023-02-23T10:21:32.310Z,100778.66
2023-02-23T10:24:04.969Z,100779.44
2023-02-23T10:26:40.452Z,100780.25
2023-02-23T10:29:22.360Z,100770.59
2023-02-23T10:31:57.321Z,100779.38
2023-02-23T10:34:28.726Z,100779.25
2023-02-23T10:37:00.517Z,100780.09
2023-02-23T10:39:30.260Z,100776.53
2023-02-23T10:42:00.794Z,100774.63
2023-02-23T10:44:30.359Z,100774.69
2023-02-23T10:47:02.668Z,100783.31
2023-02-23T10:49:44.647Z,100778.06
2023-02-23T10:52:14.833Z,100778.06
2023-02-23T10:54:47.713Z,100782.34
2023-02-23T10:57:26.549Z,100786.59
2023-02-23T11:00:10.621Z,100781.22
2023-02-23T11:02:41.729Z,100785.50
2023-02-23T11:05:31.765Z,100787.28
2023-02-23T11:08:19.689Z,100788.22
2023-02-23T11:10:58.168Z,100789.94
2023-02-23T11:13:28.562Z,100782.19
2023-02-23T11:16:01.900Z,100789.94
2023-02-23T11:18:32.023Z,100783.97
2023-02-23T11:21:00.299Z,100786.59
2023-02-23T11:23:30.880Z,100784.81
2023-02-23T11:26:01.853Z,100779.66
2023-02-23T11:28:32.612Z,100780.63
2023-02-23T11:31:05.162Z,100778.94
2023-02-23T11:33:40.684Z,100781.53
2023-02-23T11:36:26.672Z,100775.63
2023-02-23T11:39:04.633Z,100775.56
2023-02-23T11:41:35.411Z,100772.91
2023-02-23T11:44:06.225Z,100776.41
2023-02-23T11:46:39.154Z,100772.13
2023-02-23T11:49:13.957Z,100768.72
2023-02-23T11:51:47.643Z,100770.50
2023-02-23T11:54:23.274Z,100769.06
2023-02-23T11:56:52.321Z,100771.66
2023-02-23T11:59:26.277Z,100763.03
2023-02-23T12:01:57.836Z,100765.66
2023-02-23T12:04:31.421Z,100759.56
2023-02-23T12:07:38.947Z,100764.53
2023-02-23T12:10:19.381Z,100761.84
2023-02-23T12:12:57.127Z,100757.47
2023-02-23T12:15:37.880Z,100751.09
2023-02-23T12:18:15.296Z,100765.81
2023-02-23T12:20:48.623Z,100768.44
2023-02-23T12:23:21.299Z,100765.16
2023-02-23T12:25:54.369Z,100774.03
2023-02-23T12:28:30.207Z,100753.16
2023-02-23T12:31:01.680Z,100761.09
2023-02-23T12:33:37.695Z,100764.75
2023-02-23T12:36:18.480Z,100756.03
2023-02-23T12:38:54.098Z,100761.25
2023-02-23T12:41:32.757Z,100759.53
2023-02-23T12:44:04.342Z,100757.66
2023-02-23T12:46:40.531Z,100758.50
2023-02-23T12:49:17.438Z,100765.69
2023-02-23T12:51:53.133Z,100761.22
2023-02-23T12:54:21.276Z,100762.06
2023-02-23T12:57:04.660Z,100758.59
2023-02-23T12:59:53.288Z,100761.22
2023-02-23T13:02:27.149Z,100770.81
2023-02-23T13:05:15.517Z,100771.81
2023-02-23T13:08:04.716Z,100771.84
2023-02-23T13:10:49.962Z,100764.06
2023-02-23T13:13:31.145Z,100768.44
2023-02-23T13:16:07.007Z,100772.78
2023-02-23T13:18:42.915Z,100769.47
2023-02-23T13:21:17.765Z,100759.06
2023-02-23T13:24:00.649Z,100762.47
2023-02-23T13:26:38.860Z,100770.47
2023-02-23T13:29:15.698Z,100769.66
2023-02-23T13:31:46.369Z,100768.03
2023-02-23T13:34:22.950Z,100768.00
2023-02-23T13:36:51.592Z,100767.31
2023-02-23T13:39:41.916Z,100777.72
2023-02-23T13:42:34.175Z,100782.06
2023-02-23T13:45:22.691Z,100780.41
2023-02-23T13:47:57.629Z,100776.03
2023-02-23T13:50:31.542Z,100779.50
2023-02-23T13:53:04.938Z,100782.94
2023-02-23T13:55:51.689Z,100779.41
2023-02-23T13:58:28.053Z,100781.91
2023-02-23T14:01:06.297Z,100780.91
2023-02-23T14:03:42.309Z,100778.22
2023-02-23T14:06:15.335Z,100778.88
2023-02-23T14:08:46.221Z,100785.88
2023-02-23T14:14:07.952Z,100789.28
2023-02-23T14:16:37.135Z,100792.81
2023-02-23T14:19:32.818Z,100797.25
2023-02-23T14:22:05.273Z,100797.47
2023-02-23T14:24:33.280Z,100785.22
2023-02-23T14:27:39.894Z,100784.47
2023-02-23T14:30:27.802Z,100791.38
2023-02-23T14:32:56.802Z,100786.16
2023-02-23T14:35:45.865Z,100794.81
2023-02-23T14:38:28.614Z,100792.19
2023-02-23T14:40:58.134Z,100788.88
2023-02-23T14:43:45.240Z,100795.03
2023-02-23T14:46:22.330Z,100791.53
2023-02-23T14:49:00.321Z,100800.28
2023-02-23T14:51:37.187Z,100797.59
2023-02-23T14:54:11.641Z,100803.56
2023-02-23T14:56:47.938Z,100797.97
2023-02-23T14:59:21.904Z,100805.94
2023-02-23T15:01:52.693Z,100800.88
2023-02-23T15:04:23.650Z,100805.16
2023-02-23T15:06:56.225Z,100805.31
2023-02-23T15:09:36.382Z,100808.81
2023-02-23T15:12:15.086Z,100810.56
2023-02-23T15:14:44.449Z,100814.06
2023-02-23T15:17:19.172Z,100821.03
2023-02-23T15:19:50.096Z,100810.63
2023-02-23T15:22:27.169Z,100814.09
2023-02-23T15:24:58.702Z,100812.28
2023-02-23T15:27:32.197Z,100809.56
2023-02-23T15:30:00.066Z,100817.34
2023-02-23T15:32:29.446Z,100812.06
2023-02-23T15:34:57.608Z,100803.41
2023-02-23T15:37:32.769Z,100810.38
2023-02-23T15:40:04.235Z,100807.88
2023-02-23T15:42:38.905Z,100819.22
2023-02-23T15:45:17.870Z,100814.81
2023-02-23T15:47:47.472Z,100813.22
2023-02-23T15:50:24.734Z,100814.06
2023-02-23T15:53:02.301Z,100820.09
2023-02-23T15:55:35.371Z,100808.88
2023-02-23T15:58:13.753Z,100816.69
2023-02-23T16:00:44.220Z,100815.00
2023-02-23T16:03:25.189Z,100813.19
2023-02-23T16:05:59.877Z,100826.19
2023-02-23T16:08:29.595Z,100817.59
2023-02-23T16:11:05.926Z,100822.84
2023-02-23T16:13:33.713Z,100813.28
2023-02-23T16:16:01.612Z,100822.91
2023-02-23T16:18:39.405Z,100814.31
2023-02-23T16:21:09.563Z,100821.22
2023-02-23T16:23:44.463Z,100818.66
2023-02-23T16:26:19.305Z,100823.84
2023-02-23T16:28:48.060Z,100824.78
2023-02-23T16:31:25.769Z,100827.34
2023-02-23T16:33:57.297Z,100822.97
2023-02-23T16:36:26.095Z,100822.13
2023-02-23T16:39:01.442Z,100819.53
2023-02-23T16:41:32.440Z,100815.19
2023-02-23T16:44:02.832Z,100822.97
2023-02-23T16:46:37.682Z,100821.31
2023-02-23T16:49:10.215Z,100826.56
2023-02-23T16:51:38.255Z,100817.88
2023-02-23T16:54:08.552Z,100825.69
2023-02-23T16:56:39.051Z,100820.47
2023-02-23T16:59:09.558Z,100823.94
2023-02-23T17:01:37.731Z,100823.09
2023-02-23T17:04:10.752Z,100824.81
2023-02-23T17:06:38.675Z,100821.34
2023-02-23T17:09:06.573Z,100821.34
2023-02-23T17:11:34.490Z,100824.81
2023-02-23T17:14:02.432Z,100828.34
2023-02-23T17:16:30.729Z,100824.00
2023-02-23T17:19:01.672Z,100829.22
2023-02-23T17:21:31.739Z,100834.38
2023-02-23T17:24:03.639Z,100839.56
2023-02-23T17:26:31.467Z,100827.41
2023-02-23T17:28:59.320Z,100827.44
2023-02-23T17:31:28.607Z,100824.81
2023-02-23T17:33:56.770Z,100827.50
2023-02-23T17:36:27.534Z,100828.41
2023-02-23T17:38:59.174Z,100837.13
2023-02-23T17:41:27.551Z,100832.81
2023-02-23T17:43:55.810Z,100837.19
2023-02-23T17:46:24.423Z,100836.28
2023-02-23T17:48:53.975Z,100833.72
2023-02-23T17:51:23.393Z,100836.31
2023-02-23T17:53:51.783Z,100829.31
2023-02-23T17:56:21.275Z,100833.69
2023-02-23T17:58:50.002Z,100840.63
2023-02-23T18:01:19.705Z,100845.84
2023-02-23T18:03:49.248Z,100838.91
2023-02-23T18:06:17.557Z,100842.41
2023-02-23T18:08:45.627Z,100846.75
2023-02-23T18:11:13.716Z,100853.69
2023-02-23T18:13:43.286Z,100845.94
2023-02-23T18:16:11.910Z,100849.34
2023-02-23T18:18:41.730Z,100862.38
2023-02-23T18:21:13.194Z,100860.66
2023-02-23T18:23:41.842Z,100856.31
2023-02-23T18:26:11.614Z,100845.91
2023-02-23T18:28:44.155Z,100851.94
2023-02-23T18:31:15.654Z,100853.72
2023-02-23T18:33:44.814Z,100847.63
2023-02-23T18:36:20.563Z,100856.28
2023-02-23T18:38:48.285Z,100853.69
2023-02-23T18:41:16.273Z,100857.16
2023-02-23T18:43:44.219Z,100856.28
2023-02-23T18:46:15.398Z,100856.28
2023-02-23T18:48:43.929Z,100859.75
2023-02-23T18:51:14.179Z,100858.00
2023-02-23T18:53:44.463Z,100855.41
2023-02-23T18:56:14.936Z,100851.06
2023-02-23T18:58:45.646Z,100855.41
2023-02-23T19:01:18.279Z,100851.94
2023-02-23T19:03:46.407Z,100845.91
2023-02-23T19:06:15.980Z,100854.56
2023-02-23T19:08:44.193Z,100860.63
2023-02-23T19:11:13.231Z,100855.41
2023-02-23T19:13:41.128Z,100852.84
2023-02-23T19:16:10.129Z,100852.84
2023-02-23T19:18:39.450Z,100853.75
2023-02-23T19:21:08.368Z,100846.78
2023-02-23T19:23:36.197Z,100848.53
2023-02-23T19:26:05.491Z,100849.38
2023-02-23T19:28:33.485Z,100840.69
2023-02-23T19:31:05.827Z,100840.69
2023-02-23T19:33:34.019Z,100846.75
2023-02-23T19:36:05.946Z,100843.28
2023-02-23T19:38:34.113Z,100843.31
2023-02-23T19:41:02.089Z,100851.16
2023-02-23T19:43:30.156Z,100851.16
2023-02-23T19:46:03.968Z,100852.91
2023-02-23T19:48:31.856Z,100848.53
2023-02-23T19:50:59.916Z,100853.78
2023-02-23T19:53:29.600Z,100856.38
2023-02-23T19:56:01.980Z,100858.97
2023-02-23T19:58:29.901Z,100861.59
2023-02-23T20:00:58.482Z,100853.78
2023-02-23T20:03:28.329Z,100859.00
2023-02-23T20:05:57.174Z,100851.19
2023-02-23T20:08:25.364Z,100854.66
2023-02-23T20:10:54.619Z,100846.84
2023-02-23T20:13:23.397Z,100865.09
2023-02-23T20:15:51.543Z,100867.69
2023-02-23T20:18:21.146Z,100870.28
2023-02-23T20:20:49.067Z,100865.13
2023-02-23T20:23:17.382Z,100868.56
2023-02-23T20:25:45.136Z,100869.44
2023-02-23T20:28:14.437Z,100869.47
2023-02-23T20:30:47.080Z,100868.59
2023-02-23T20:33:15.706Z,100867.75
2023-02-23T20:35:44.684Z,100871.22
2023-02-23T20:38:15.260Z,100869.50
2023-02-23T20:40:43.143Z,100859.94
2023-02-23T20:43:11.084Z,100866.03
2023-02-23T20:45:41.573Z,100864.31
2023-02-23T20:48:10.577Z,100866.94
2023-02-23T20:50:39.020Z,100870.38
2023-02-23T20:53:08.358Z,100869.53
2023-02-23T20:55:36.505Z,100868.66
2023-02-23T20:58:06.937Z,100875.59
2023-02-23T21:00:35.455Z,100868.66
2023-02-23T21:03:05.131Z,100862.56
2023-02-23T21:05:38.357Z,100876.44
2023-02-23T21:08:09.243Z,100870.41
2023-02-23T21:10:39.995Z,100878.19
2023-02-23T21:13:10.340Z,100879.06
2023-02-23T21:15:39.787Z,100872.16
2023-02-23T21:18:09.997Z,100866.06
2023-02-23T21:20:39.036Z,100864.34
2023-02-23T21:23:07.118Z,100867.81
2023-02-23T21:25:35.195Z,100860.88
2023-02-23T21:28:03.105Z,100864.34
2023-02-23T21:30:31.394Z,100862.59
2023-02-23T21:33:00.144Z,100860.00
2023-02-23T21:35:29.523Z,100855.66
2023-02-23T21:37:57.840Z,100859.13
2023-02-23T21:40:25.994Z,100854.75
2023-02-23T21:42:54.258Z,100849.56
2023-02-23T21:45:22.916Z,100852.19
2023-02-23T21:47:50.895Z,100845.25
2023-02-23T21:50:20.165Z,100842.63
2023-02-23T21:52:53.089Z,100842.63
2023-02-23T21:55:22.092Z,100835.72
2023-02-23T21:57:51.778Z,100837.44
2023-02-23T22:00:20.729Z,100839.22
2023-02-23T22:02:49.096Z,100838.34
2023-02-23T22:05:19.619Z,100843.53
2023-02-23T22:07:54.350Z,100851.34
2023-02-23T22:10:24.744Z,100847.00
2023-02-23T22:12:55.847Z,100838.31
2023-02-23T22:15:27.160Z,100853.91
2023-02-23T22:17:55.153Z,100846.13
2023-02-23T22:20:23.538Z,100849.59
2023-02-23T22:22:53.095Z,100839.19
2023-02-23T22:25:21.833Z,100841.78
2023-02-23T22:27:49.734Z,100843.53
2023-02-23T22:30:20.252Z,100833.13
2023-02-23T22:32:48.404Z,100836.59
2023-02-23T22:35:16.653Z,100837.47
2023-02-23T22:37:44.576Z,100836.59
2023-02-23T22:40:16.439Z,100829.66
2023-02-23T22:42:48.312Z,100824.47
2023-02-23T22:45:17.381Z,100818.44
2023-02-23T22:47:45.809Z,100820.16
2023-02-23T22:50:17.900Z,100827.09
2023-02-23T22:52:47.256Z,100822.78
2023-02-23T22:55:18.227Z,100823.66
2023-02-23T22:57:47.620Z,100821.94
2023-02-23T23:00:19.391Z,100809.78
2023-02-23T23:02:47.358Z,100801.13
2023-02-23T23:05:15.975Z,100802.88
2023-02-23T23:07:46.689Z,100802.88
2023-02-23T23:10:17.538Z,100798.53
2023-02-23T23:12:46.392Z,100796.81
2023-02-23T23:15:17.226Z,100794.22
2023-02-23T23:17:48.131Z,100805.50
2023-02-23T23:20:17.617Z,100803.78
2023-02-23T23:22:45.679Z,100797.69
2023-02-23T23:25:15.617Z,100789.03
2023-02-23T23:27:45.966Z,100799.44
2023-02-23T23:30:15.454Z,100789.03
2023-02-23T23:32:43.336Z,100784.69
2023-02-23T23:35:13.377Z,100783.84
2023-02-23T23:37:41.368Z,100780.38
2023-02-23T23:40:14.636Z,100781.25
2023-02-23T23:42:45.853Z,100781.22
2023-02-23T23:45:17.173Z,100781.22
2023-02-23T23:47:45.227Z,100782.97
2023-02-23T23:50:15.439Z,100775.16
2023-02-23T23:52:45.161Z,100769.94
2023-02-23T23:55:15.905Z,100774.28
2023-02-23T23:57:44.260Z,100772.56
